createdAt,value
2023-11-30T00:00:00.264Z,12.53
2023-11-30T00:02:00.170Z,13.45
2023-11-30T00:04:00.331Z,13.45
2023-11-30T00:06:00.289Z,13.45
2023-11-30T00:08:00.222Z,13.45
2023-11-30T00:10:00.267Z,13.45
2023-11-30T00:12:00.348Z,14.77
2023-11-30T00:14:00.118Z,14.77
2023-11-30T00:16:00.148Z,13.43
2023-11-30T00:18:00.205Z,13.43
2023-11-30T00:20:00.234Z,13.43
2023-11-30T00:22:00.172Z,14.27
2023-11-30T00:24:00.111Z,14.27
2023-11-30T00:26:00.139Z,14.47
2023-11-30T00:28:00.117Z,14.47
2023-11-30T00:30:00.225Z,14.47
2023-11-30T00:32:00.208Z,12.63
2023-11-30T00:34:00.116Z,12.63
2023-11-30T00:36:00.236Z,14.4
2023-11-30T00:38:00.088Z,14.4
2023-11-30T00:40:00.232Z,14.4
2023-11-30T00:42:00.373Z,16.27
2023-11-30T00:44:00.133Z,16.27
2023-11-30T00:46:07.009Z,16.93
2023-11-30T00:48:00.245Z,16.93
2023-11-30T00:50:00.278Z,16.93
2023-11-30T00:52:00.261Z,15.07
2023-11-30T00:54:00.115Z,15.07
2023-11-30T00:56:00.187Z,13.68
2023-11-30T00:58:00.124Z,13.68
2023-11-30T01:00:00.438Z,13.68
2023-11-30T01:02:00.255Z,13.93
2023-11-30T01:04:00.397Z,13.93
2023-11-30T01:06:00.168Z,14.23
2023-11-30T01:08:00.119Z,14.23
2023-11-30T01:10:00.241Z,14.23
2023-11-30T01:12:00.259Z,13.68
2023-11-30T01:14:00.232Z,13.68
2023-11-30T01:16:00.175Z,14.77
2023-11-30T01:18:00.369Z,14.77
2023-11-30T01:20:00.305Z,14.77
2023-11-30T01:22:00.094Z,13.63
2023-11-30T01:24:00.363Z,13.63
2023-11-30T01:26:00.080Z,13
2023-11-30T01:28:00.166Z,13
2023-11-30T01:30:00.285Z,13
2023-11-30T01:32:00.098Z,13.27
2023-11-30T01:34:00.121Z,13.27
2023-11-30T01:36:00.342Z,13.77
2023-11-30T01:38:00.103Z,13.77
2023-11-30T01:40:00.241Z,13.77
2023-11-30T01:42:00.979Z,12.52
2023-11-30T01:44:00.209Z,12.52
2023-11-30T01:46:03.490Z,12.38
2023-11-30T01:48:00.147Z,12.38
2023-11-30T01:50:00.268Z,12.38
2023-11-30T01:52:00.225Z,12.65
2023-11-30T01:54:00.107Z,12.65
2023-11-30T01:56:00.285Z,12.7
2023-11-30T01:58:00.213Z,12.7
2023-11-30T02:00:00.327Z,12.7
2023-11-30T02:02:00.186Z,11.65
2023-11-30T02:04:00.362Z,11.65
2023-11-30T02:06:00.145Z,11.48
2023-11-30T02:08:00.174Z,11.48
2023-11-30T02:10:00.324Z,11.48
2023-11-30T02:12:00.091Z,12.07
2023-11-30T02:14:00.186Z,12.07
2023-11-30T02:16:00.242Z,11.7
2023-11-30T02:18:00.276Z,11.7
2023-11-30T02:20:00.276Z,11.7
2023-11-30T02:22:00.099Z,13.17
2023-11-30T02:24:00.165Z,13.17
2023-11-30T02:26:00.226Z,12.87
2023-11-30T02:28:00.094Z,12.87
2023-11-30T02:30:00.409Z,12.87
2023-11-30T02:32:00.229Z,13.03
2023-11-30T02:34:00.165Z,13.03
2023-11-30T02:36:00.352Z,13.27
2023-11-30T02:38:00.176Z,13.27
2023-11-30T02:40:00.299Z,13.27
2023-11-30T02:42:00.187Z,13.97
2023-11-30T02:44:00.183Z,13.97
2023-11-30T02:46:00.158Z,13.3
2023-11-30T02:48:00.291Z,13.3
2023-11-30T02:50:00.267Z,13.3
2023-11-30T02:52:00.234Z,14.07
2023-11-30T02:54:00.108Z,14.07
2023-11-30T02:56:00.106Z,13.8
2023-11-30T02:58:00.098Z,13.8
2023-11-30T03:00:00.231Z,13.8
2023-11-30T03:02:00.279Z,15.2
2023-11-30T03:04:00.166Z,15.2
2023-11-30T03:06:00.160Z,15.52
2023-11-30T03:08:00.119Z,15.52
2023-11-30T03:10:00.258Z,15.52
2023-11-30T03:12:00.129Z,13.98
2023-11-30T03:14:00.098Z,13.98
2023-11-30T03:16:00.293Z,14.32
2023-11-30T03:18:00.359Z,14.32
2023-11-30T03:20:00.331Z,14.32
2023-11-30T03:22:00.115Z,13.1
2023-11-30T03:24:00.134Z,13.1
2023-11-30T03:26:00.089Z,12.45
2023-11-30T03:28:00.103Z,12.45
2023-11-30T03:30:00.301Z,12.45
2023-11-30T03:32:00.150Z,13.02
2023-11-30T03:34:00.096Z,13.02
2023-11-30T03:36:00.199Z,11.43
2023-11-30T03:38:00.113Z,11.43
2023-11-30T03:40:00.303Z,11.43
2023-11-30T03:42:00.283Z,12.3
2023-11-30T03:44:00.107Z,12.3
2023-11-30T03:46:00.128Z,12.37
2023-11-30T03:48:00.284Z,12.37
2023-11-30T03:50:00.229Z,12.37
2023-11-30T03:52:00.244Z,11.4
2023-11-30T03:54:00.241Z,11.4
2023-11-30T03:56:00.102Z,12.53
2023-11-30T03:58:00.165Z,12.53
2023-11-30T04:00:00.283Z,12.53
2023-11-30T04:02:00.307Z,13.23
2023-11-30T04:04:00.268Z,13.23
2023-11-30T04:06:00.143Z,12.77
2023-11-30T04:08:00.192Z,12.77
2023-11-30T04:10:00.249Z,12.77
2023-11-30T04:12:00.269Z,13.18
2023-11-30T04:14:00.077Z,13.18
2023-11-30T04:16:00.272Z,12.9
2023-11-30T04:18:00.193Z,12.9
2023-11-30T04:20:00.278Z,12.9
2023-11-30T04:22:00.098Z,13.47
2023-11-30T04:24:00.197Z,13.47
2023-11-30T04:26:00.085Z,14.68
2023-11-30T04:28:00.204Z,14.68
2023-11-30T04:30:00.225Z,14.68
2023-11-30T04:32:00.101Z,14.85
2023-11-30T04:34:00.152Z,14.85
2023-11-30T04:36:00.171Z,13.18
2023-11-30T04:38:00.236Z,13.18
2023-11-30T04:40:00.324Z,13.18
2023-11-30T04:42:00.151Z,13.9
2023-11-30T04:44:00.107Z,13.9
2023-11-30T04:46:00.113Z,13.7
2023-11-30T04:48:00.257Z,13.7
2023-11-30T04:50:00.281Z,13.7
2023-11-30T04:52:00.130Z,16.5
2023-11-30T04:54:00.258Z,16.5
2023-11-30T04:56:00.282Z,13.6
2023-11-30T04:58:00.215Z,13.6
2023-11-30T05:00:00.285Z,13.6
2023-11-30T05:02:00.928Z,13.5
2023-11-30T05:04:00.531Z,13.5
2023-11-30T05:06:00.369Z,12.68
2023-11-30T05:08:00.110Z,12.68
2023-11-30T05:10:00.316Z,12.68
2023-11-30T05:12:00.241Z,12.87
2023-11-30T05:14:00.164Z,12.87
2023-11-30T05:16:00.166Z,14.77
2023-11-30T05:18:00.330Z,14.77
2023-11-30T05:20:00.311Z,14.77
2023-11-30T05:22:00.266Z,13.73
2023-11-30T05:24:00.292Z,13.73
2023-11-30T05:26:00.081Z,11.53
2023-11-30T05:28:00.361Z,11.53
2023-11-30T05:30:00.450Z,11.53
2023-11-30T05:32:00.090Z,12
2023-11-30T05:34:00.112Z,12
2023-11-30T05:36:00.470Z,13.4
2023-11-30T05:38:00.197Z,13.4
2023-11-30T05:40:00.334Z,13.4
2023-11-30T05:42:00.160Z,13.03
2023-11-30T05:44:00.171Z,13.03
2023-11-30T05:46:00.099Z,14
2023-11-30T05:48:00.220Z,14
2023-11-30T05:50:00.221Z,14
2023-11-30T05:52:00.217Z,12.77
2023-11-30T05:54:00.220Z,12.77
2023-11-30T05:56:00.226Z,11.55
2023-11-30T05:58:00.225Z,11.55
2023-11-30T06:00:00.266Z,11.55
2023-11-30T06:02:00.161Z,12.18
2023-11-30T06:04:00.273Z,12.18
2023-11-30T06:06:00.127Z,10.87
2023-11-30T06:08:00.220Z,10.87
2023-11-30T06:10:00.278Z,10.87
2023-11-30T06:12:00.118Z,8.93
2023-11-30T06:14:01.805Z,8.93
2023-11-30T06:16:00.124Z,13.27
2023-11-30T06:18:00.375Z,13.27
2023-11-30T06:20:01.376Z,13.27
2023-11-30T06:22:00.099Z,11.47
2023-11-30T06:24:00.312Z,11.47
2023-11-30T06:26:00.088Z,12.4
2023-11-30T06:28:00.219Z,12.4
2023-11-30T06:30:00.281Z,12.4
2023-11-30T06:32:00.086Z,13.52
2023-11-30T06:34:00.260Z,13.52
2023-11-30T06:36:00.198Z,12.2
2023-11-30T06:38:00.095Z,12.2
2023-11-30T06:40:00.306Z,12.2
2023-11-30T06:42:00.107Z,13.6
2023-11-30T06:44:00.101Z,13.6
2023-11-30T06:46:00.099Z,13.32
2023-11-30T06:48:00.274Z,13.32
2023-11-30T06:50:00.252Z,13.32
2023-11-30T06:52:01.601Z,11.3
2023-11-30T06:54:00.349Z,11.3
2023-11-30T06:56:00.106Z,12
2023-11-30T06:58:00.117Z,12
2023-11-30T07:00:00.488Z,12
2023-11-30T07:02:00.112Z,14.83
2023-11-30T07:04:00.425Z,14.83
2023-11-30T07:06:00.253Z,11.6
2023-11-30T07:08:00.123Z,11.6
2023-11-30T07:10:00.215Z,11.6
2023-11-30T07:12:00.123Z,12.5
2023-11-30T07:14:00.171Z,12.5
2023-11-30T07:16:00.223Z,15.17
2023-11-30T07:18:00.264Z,15.17
2023-11-30T07:20:00.295Z,15.17
2023-11-30T07:22:00.195Z,12.18
2023-11-30T07:24:00.401Z,12.18
2023-11-30T07:26:00.182Z,14.7
2023-11-30T07:28:00.090Z,14.7
2023-11-30T07:30:00.316Z,14.7
2023-11-30T07:32:00.127Z,13.85
2023-11-30T07:34:00.201Z,13.85
2023-11-30T07:36:00.194Z,13.37
2023-11-30T07:38:00.088Z,13.37
2023-11-30T07:40:00.302Z,13.37
2023-11-30T07:42:00.124Z,13.47
2023-11-30T07:44:00.123Z,13.47
2023-11-30T07:46:00.299Z,13.8
2023-11-30T07:48:00.483Z,13.8
2023-11-30T07:50:00.248Z,13.8
2023-11-30T07:52:00.176Z,12.7
2023-11-30T07:54:00.155Z,12.7
2023-11-30T07:56:00.228Z,12.13
2023-11-30T07:58:00.134Z,12.13
2023-11-30T08:00:00.500Z,12.13
2023-11-30T08:02:00.111Z,11.98
2023-11-30T08:04:00.318Z,11.98
2023-11-30T08:06:00.236Z,13.77
2023-11-30T08:08:00.154Z,13.77
2023-11-30T08:10:00.302Z,13.77
2023-11-30T08:12:00.276Z,18.4
2023-11-30T08:14:00.224Z,18.4
2023-11-30T08:16:00.162Z,14.5
2023-11-30T08:18:00.160Z,14.5
2023-11-30T08:20:00.292Z,14.5
2023-11-30T08:22:00.160Z,14.23
2023-11-30T08:24:00.212Z,14.23
2023-11-30T08:26:00.121Z,14.4
2023-11-30T08:28:00.268Z,14.4
2023-11-30T08:30:00.290Z,14.4
2023-11-30T08:32:00.193Z,14.4
2023-11-30T08:34:00.161Z,14.4
2023-11-30T08:36:00.111Z,13.77
2023-11-30T08:38:00.219Z,13.77
2023-11-30T08:40:00.220Z,13.77
2023-11-30T08:42:00.097Z,12.4
2023-11-30T08:44:00.119Z,12.4
2023-11-30T08:46:00.215Z,13.82
2023-11-30T08:48:00.153Z,13.82
2023-11-30T08:50:00.211Z,13.82
2023-11-30T08:52:00.183Z,13.25
2023-11-30T08:54:00.117Z,13.25
2023-11-30T08:56:00.111Z,11.63
2023-11-30T08:58:00.176Z,11.63
2023-11-30T09:00:00.506Z,11.63
2023-11-30T09:02:00.346Z,11.95
2023-11-30T09:04:00.188Z,11.95
2023-11-30T09:06:00.146Z,13.9
2023-11-30T09:08:00.139Z,13.9
2023-11-30T09:10:00.323Z,13.9
2023-11-30T09:12:00.105Z,14.23
2023-11-30T09:14:00.214Z,14.23
2023-11-30T09:16:00.154Z,12.9
2023-11-30T09:18:00.185Z,12.9
2023-11-30T09:20:00.235Z,12.9
2023-11-30T09:22:00.089Z,11.82
2023-11-30T09:24:00.274Z,11.82
2023-11-30T09:26:00.123Z,16
2023-11-30T09:28:00.121Z,16
2023-11-30T09:30:00.301Z,16
2023-11-30T09:32:00.893Z,16.1
2023-11-30T09:34:00.096Z,16.1
2023-11-30T09:36:00.215Z,16.1
2023-11-30T09:38:01.074Z,16.1
2023-11-30T09:40:00.329Z,16.1
2023-11-30T09:42:00.226Z,14.75
2023-11-30T09:44:00.392Z,14.75
2023-11-30T09:46:00.095Z,16.45
2023-11-30T09:48:00.259Z,16.45
2023-11-30T09:50:00.269Z,16.45
2023-11-30T09:52:00.233Z,12.83
2023-11-30T09:54:00.094Z,12.83
2023-11-30T09:56:00.113Z,13.57
2023-11-30T09:58:00.125Z,13.57
2023-11-30T10:00:00.407Z,13.57
2023-11-30T10:02:03.501Z,11.77
2023-11-30T10:04:00.434Z,11.77
2023-11-30T10:06:00.195Z,15.23
2023-11-30T10:08:00.306Z,15.23
2023-11-30T10:10:00.270Z,15.23
2023-11-30T10:12:00.222Z,13.17
2023-11-30T10:14:00.926Z,13.17
2023-11-30T10:16:00.368Z,12.1
2023-11-30T10:18:00.285Z,12.1
2023-11-30T10:20:00.244Z,12.1
2023-11-30T10:22:00.101Z,13.67
2023-11-30T10:24:00.170Z,13.67
2023-11-30T10:26:00.114Z,12
2023-11-30T10:28:00.212Z,12
2023-11-30T10:30:00.283Z,12
2023-11-30T10:32:00.176Z,10.57
2023-11-30T10:34:00.233Z,10.57
2023-11-30T10:36:00.213Z,10.35
2023-11-30T10:38:00.115Z,10.35
2023-11-30T10:40:00.310Z,10.35
2023-11-30T10:42:00.106Z,10.48
2023-11-30T10:44:00.722Z,10.48
2023-11-30T10:46:00.270Z,9.48
2023-11-30T10:48:00.203Z,9.48
2023-11-30T10:50:00.309Z,9.48
2023-11-30T10:52:03.086Z,11.25
2023-11-30T10:54:00.308Z,11.25
2023-11-30T10:56:00.095Z,10.1
2023-11-30T10:58:00.188Z,10.1
2023-11-30T11:00:00.510Z,10.1
2023-11-30T11:02:00.249Z,10.9
2023-11-30T11:04:00.185Z,10.9
2023-11-30T11:06:00.086Z,9.93
2023-11-30T11:08:00.218Z,9.93
2023-11-30T11:10:02.392Z,9.93
2023-11-30T11:12:00.245Z,9.68
2023-11-30T11:14:00.139Z,9.68
2023-11-30T11:16:00.624Z,11.6
2023-11-30T11:18:00.155Z,11.6
2023-11-30T11:20:00.269Z,11.6
2023-11-30T11:22:00.124Z,9.45
2023-11-30T11:24:00.196Z,9.45
2023-11-30T11:26:00.089Z,9.45
2023-11-30T11:28:00.139Z,9.45
2023-11-30T11:30:00.417Z,9.45
2023-11-30T11:32:00.246Z,8.23
2023-11-30T11:34:00.138Z,8.23
2023-11-30T11:36:00.110Z,8.23
2023-11-30T11:38:00.343Z,8.23
2023-11-30T11:40:00.309Z,8.23
2023-11-30T11:42:00.085Z,8.13
2023-11-30T11:44:00.119Z,8.13
2023-11-30T11:46:00.245Z,7.6
2023-11-30T11:48:00.393Z,7.6
2023-11-30T11:50:00.237Z,7.6
2023-11-30T11:52:00.277Z,7.6
2023-11-30T11:54:00.099Z,7.6
2023-11-30T11:56:00.114Z,7.38
2023-11-30T11:58:00.194Z,7.38
2023-11-30T12:00:00.281Z,7.38
2023-11-30T12:02:00.215Z,7.47
2023-11-30T12:04:00.347Z,7.47
2023-11-30T12:06:00.082Z,6.2
2023-11-30T12:08:00.126Z,6.2
2023-11-30T12:10:00.360Z,6.2
2023-11-30T12:12:00.110Z,7.25
2023-11-30T12:14:00.126Z,7.25
2023-11-30T12:16:00.251Z,8.25
2023-11-30T12:18:00.157Z,8.25
2023-11-30T12:20:00.230Z,8.25
2023-11-30T12:22:00.238Z,7.18
2023-11-30T12:24:00.129Z,7.18
2023-11-30T12:26:00.258Z,7.18
2023-11-30T12:28:00.126Z,7.18
2023-11-30T12:30:00.299Z,7.18
2023-11-30T12:32:00.145Z,7.18
2023-11-30T12:34:00.135Z,7.18
2023-11-30T12:36:00.225Z,7.18
2023-11-30T12:38:00.234Z,7.18
2023-11-30T12:40:00.691Z,7.18
2023-11-30T12:42:01.080Z,7.18
2023-11-30T12:44:00.627Z,7.18
2023-11-30T12:46:00.308Z,7.4
2023-11-30T12:48:00.349Z,7.4
2023-11-30T12:50:00.407Z,7.4
2023-11-30T12:52:14.732Z,6.57
2023-11-30T12:54:00.153Z,6.57
2023-11-30T12:56:00.140Z,6.57
2023-11-30T12:58:00.185Z,6.57
2023-11-30T13:00:00.255Z,6.57
2023-11-30T13:02:00.250Z,6.57
2023-11-30T13:04:00.273Z,6.57
2023-11-30T13:06:00.187Z,6.43
2023-11-30T13:08:00.140Z,6.43
2023-11-30T13:10:00.288Z,6.43
2023-11-30T13:12:00.292Z,7.63
2023-11-30T13:14:00.125Z,7.63
2023-11-30T13:16:00.108Z,7.3
2023-11-30T13:18:00.269Z,7.3
2023-11-30T13:20:00.167Z,7.3
2023-11-30T13:22:00.108Z,6.75
2023-11-30T13:24:00.201Z,6.75
2023-11-30T13:26:00.090Z,7.1
2023-11-30T13:28:00.109Z,7.1
2023-11-30T13:30:00.342Z,7.1
2023-11-30T13:32:00.321Z,7.65
2023-11-30T13:34:00.088Z,7.65
2023-11-30T13:36:00.110Z,6.43
2023-11-30T13:38:00.256Z,6.43
2023-11-30T13:40:00.290Z,6.43
2023-11-30T13:42:00.082Z,6.65
2023-11-30T13:44:00.098Z,6.65
2023-11-30T13:46:00.218Z,9.27
2023-11-30T13:48:00.191Z,9.27
2023-11-30T13:50:00.205Z,9.27
2023-11-30T13:52:00.102Z,9.13
2023-11-30T13:54:00.187Z,9.13
2023-11-30T13:56:00.108Z,8.47
2023-11-30T13:58:00.104Z,8.47
2023-11-30T14:00:00.252Z,8.47
2023-11-30T14:02:00.212Z,6.85
2023-11-30T14:04:00.142Z,6.85
2023-11-30T14:06:00.118Z,7.03
2023-11-30T14:08:01.527Z,7.03
2023-11-30T14:10:00.348Z,7.03
2023-11-30T14:12:00.130Z,7.3
2023-11-30T14:14:00.172Z,7.3
2023-11-30T14:16:00.307Z,9
2023-11-30T14:18:00.164Z,9
2023-11-30T14:20:00.289Z,9
2023-11-30T14:22:00.139Z,9.57
2023-11-30T14:24:00.170Z,9.57
2023-11-30T14:26:00.081Z,9.57
2023-11-30T14:28:04.968Z,9.57
2023-11-30T14:30:00.257Z,9.57
2023-11-30T14:32:00.098Z,11.3
2023-11-30T14:34:00.194Z,11.3
2023-11-30T14:36:00.293Z,11.95
2023-11-30T14:38:00.272Z,11.95
2023-11-30T14:40:00.336Z,11.95
2023-11-30T14:42:00.248Z,12.2
2023-11-30T14:44:00.136Z,12.2
2023-11-30T14:46:00.179Z,12.27
2023-11-30T14:48:00.206Z,12.27
2023-11-30T14:50:00.342Z,12.27
2023-11-30T14:52:00.281Z,15.2
2023-11-30T14:54:00.262Z,15.2
2023-11-30T14:56:00.169Z,14.85
2023-11-30T14:58:00.335Z,14.85
2023-11-30T15:00:00.277Z,14.85
2023-11-30T15:02:00.262Z,16.8
2023-11-30T15:04:00.186Z,16.8
2023-11-30T15:06:00.113Z,17.5
2023-11-30T15:08:00.143Z,17.5
2023-11-30T15:10:00.349Z,17.5
2023-11-30T15:12:00.148Z,16.77
2023-11-30T15:14:00.221Z,16.77
2023-11-30T15:16:00.264Z,15.53
2023-11-30T15:18:00.257Z,15.53
2023-11-30T15:20:00.280Z,15.53
2023-11-30T15:22:00.300Z,14.73
2023-11-30T15:24:00.116Z,14.73
2023-11-30T15:26:00.078Z,16.43
2023-11-30T15:28:00.186Z,16.43
2023-11-30T15:30:00.393Z,16.43
2023-11-30T15:32:00.146Z,17.33
2023-11-30T15:34:00.279Z,17.33
2023-11-30T15:36:00.187Z,19
2023-11-30T15:38:00.118Z,19
2023-11-30T15:40:00.337Z,19
2023-11-30T15:42:00.202Z,17.2
2023-11-30T15:44:00.135Z,17.2
2023-11-30T15:46:00.217Z,19.5
2023-11-30T15:48:00.226Z,19.5
2023-11-30T15:50:00.337Z,19.5
2023-11-30T15:52:00.199Z,16.3
2023-11-30T15:54:00.121Z,16.3
2023-11-30T15:56:00.205Z,17.17
2023-11-30T15:58:00.191Z,17.17
2023-11-30T16:00:00.336Z,17.17
2023-11-30T16:02:00.185Z,20.83
2023-11-30T16:04:00.507Z,20.83
2023-11-30T16:06:00.243Z,18.02
2023-11-30T16:08:00.102Z,18.02
2023-11-30T16:10:00.241Z,18.02
2023-11-30T16:12:00.111Z,19.38
2023-11-30T16:14:00.182Z,19.38
2023-11-30T16:16:00.161Z,18.13
2023-11-30T16:18:00.140Z,18.13
2023-11-30T16:20:00.253Z,18.13
2023-11-30T16:22:00.183Z,18.37
2023-11-30T16:24:00.120Z,18.37
2023-11-30T16:26:00.083Z,18.77
2023-11-30T16:28:00.181Z,18.77
2023-11-30T16:30:00.355Z,18.77
2023-11-30T16:32:00.157Z,19.52
2023-11-30T16:34:00.142Z,19.52
2023-11-30T16:36:00.092Z,19.2
2023-11-30T16:38:00.246Z,19.2
2023-11-30T16:40:00.400Z,19.2
2023-11-30T16:42:00.116Z,19.23
2023-11-30T16:44:00.303Z,19.23
2023-11-30T16:46:00.388Z,19.63
2023-11-30T16:48:00.426Z,19.63
2023-11-30T16:50:00.306Z,19.63
2023-11-30T16:52:00.342Z,20.73
2023-11-30T16:54:00.090Z,20.73
2023-11-30T16:56:00.152Z,19.17
2023-11-30T16:58:00.115Z,19.17
2023-11-30T17:00:00.306Z,19.17
2023-11-30T17:02:00.138Z,27.58
2023-11-30T17:04:00.283Z,27.58
2023-11-30T17:06:00.080Z,26.43
2023-11-30T17:08:00.283Z,26.43
2023-11-30T17:10:00.557Z,26.43
2023-11-30T17:12:00.142Z,25.85
2023-11-30T17:14:00.360Z,25.85
2023-11-30T17:16:00.172Z,28.7
2023-11-30T17:18:00.197Z,28.7
2023-11-30T17:20:00.346Z,28.7
2023-11-30T17:22:00.117Z,26.52
2023-11-30T17:24:00.104Z,26.52
2023-11-30T17:26:00.182Z,25.53
2023-11-30T17:28:00.238Z,25.53
2023-11-30T17:30:00.187Z,25.53
2023-11-30T17:32:00.229Z,32.03
2023-11-30T17:34:00.298Z,32.03
2023-11-30T17:36:00.097Z,27.77
2023-11-30T17:38:00.108Z,27.77
2023-11-30T17:40:00.344Z,27.77
2023-11-30T17:42:00.109Z,32.93
2023-11-30T17:44:00.093Z,32.93
2023-11-30T17:46:00.183Z,31.1
2023-11-30T17:48:00.131Z,31.1
2023-11-30T17:50:01.542Z,31.1
2023-11-30T17:52:00.098Z,28.37
2023-11-30T17:54:00.120Z,28.37
2023-11-30T17:56:00.151Z,28.13
2023-11-30T17:58:00.226Z,28.13
2023-11-30T18:00:00.440Z,28.13
2023-11-30T18:02:00.186Z,31.23
2023-11-30T18:04:00.149Z,31.23
2023-11-30T18:06:00.081Z,29.37
2023-11-30T18:08:00.170Z,29.37
2023-11-30T18:10:00.218Z,29.37
2023-11-30T18:12:00.098Z,27.6
2023-11-30T18:14:00.164Z,27.6
2023-11-30T18:16:03.014Z,25.1
2023-11-30T18:18:00.116Z,25.1
2023-11-30T18:20:00.283Z,25.1
2023-11-30T18:22:00.237Z,22.97
2023-11-30T18:24:00.207Z,22.97
2023-11-30T18:26:00.269Z,22.55
2023-11-30T18:28:00.135Z,22.55
2023-11-30T18:30:00.280Z,22.55
2023-11-30T18:32:00.292Z,20.83
2023-11-30T18:34:00.164Z,20.83
2023-11-30T18:36:00.165Z,20.67
2023-11-30T18:38:02.920Z,20.67
2023-11-30T18:40:00.410Z,20.67
2023-11-30T18:42:00.096Z,19.85
2023-11-30T18:44:00.153Z,19.85
2023-11-30T18:46:00.187Z,18.93
2023-11-30T18:48:00.156Z,18.93
2023-11-30T18:50:00.250Z,18.93
2023-11-30T18:52:00.266Z,18.45
2023-11-30T18:54:00.226Z,18.45
2023-11-30T18:56:00.106Z,21.35
2023-11-30T18:58:00.141Z,21.35
2023-11-30T19:00:00.263Z,21.35
2023-11-30T19:02:00.180Z,21.83
2023-11-30T19:04:00.305Z,21.83
2023-11-30T19:06:00.114Z,22.17
2023-11-30T19:08:00.236Z,22.17
2023-11-30T19:10:00.303Z,22.17
2023-11-30T19:12:00.120Z,20.25
2023-11-30T19:14:00.236Z,20.25
2023-11-30T19:16:00.230Z,19.5
2023-11-30T19:18:00.322Z,19.5
2023-11-30T19:20:00.278Z,19.5
2023-11-30T19:22:00.114Z,20.8
2023-11-30T19:24:00.103Z,20.8
2023-11-30T19:26:00.100Z,18.88
2023-11-30T19:28:00.267Z,18.88
2023-11-30T19:30:00.287Z,18.88
2023-11-30T19:32:00.123Z,19.45
2023-11-30T19:34:00.305Z,19.45
2023-11-30T19:36:00.271Z,19.27
2023-11-30T19:38:00.265Z,19.27
2023-11-30T19:40:01.592Z,19.27
2023-11-30T19:42:00.225Z,18.87
2023-11-30T19:44:00.238Z,18.87
2023-11-30T19:46:02.904Z,19.42
2023-11-30T19:48:00.382Z,19.42
2023-11-30T19:50:00.273Z,19.42
2023-11-30T19:52:00.140Z,18.23
2023-11-30T19:54:00.299Z,18.23
2023-11-30T19:56:00.245Z,17.27
2023-11-30T19:58:00.284Z,17.27
2023-11-30T20:00:00.265Z,17.27
2023-11-30T20:02:00.156Z,15.95
2023-11-30T20:04:00.349Z,15.95
2023-11-30T20:06:00.218Z,25.63
2023-11-30T20:08:00.156Z,25.63
2023-11-30T20:10:00.356Z,25.63
2023-11-30T20:12:00.140Z,20.23
2023-11-30T20:14:00.223Z,20.23
2023-11-30T20:16:00.238Z,19.93
2023-11-30T20:18:00.244Z,19.93
2023-11-30T20:20:00.350Z,19.93
2023-11-30T20:22:00.211Z,20.33
2023-11-30T20:24:00.234Z,20.33
2023-11-30T20:26:00.081Z,17.73
2023-11-30T20:28:00.341Z,17.73
2023-11-30T20:30:00.210Z,17.73
2023-11-30T20:32:00.187Z,17.73
2023-11-30T20:34:00.268Z,17.73
2023-11-30T20:36:00.096Z,17.03
2023-11-30T20:38:00.224Z,17.03
2023-11-30T20:40:00.338Z,17.03
2023-11-30T20:42:00.340Z,17.37
2023-11-30T20:44:00.202Z,17.37
2023-11-30T20:46:00.194Z,16.67
2023-11-30T20:48:00.446Z,16.67
2023-11-30T20:50:00.295Z,16.67
2023-11-30T20:52:00.204Z,16.87
2023-11-30T20:54:00.078Z,16.87
2023-11-30T20:56:00.112Z,17.5
2023-11-30T20:58:00.327Z,17.5
2023-11-30T21:00:00.277Z,17.5
2023-11-30T21:02:00.318Z,17.83
2023-11-30T21:04:00.341Z,17.83
2023-11-30T21:06:00.080Z,15.7
2023-11-30T21:08:00.107Z,15.7
2023-11-30T21:10:00.312Z,15.7
2023-11-30T21:12:00.137Z,16.83
2023-11-30T21:14:00.103Z,16.83
2023-11-30T21:16:00.168Z,17.33
2023-11-30T21:18:00.339Z,17.33
2023-11-30T21:20:00.253Z,17.33
2023-11-30T21:22:00.134Z,17.53
2023-11-30T21:24:00.154Z,17.53
2023-11-30T21:26:00.108Z,14.63
2023-11-30T21:28:00.327Z,14.63
2023-11-30T21:30:00.243Z,14.63
2023-11-30T21:32:00.246Z,18
2023-11-30T21:34:00.143Z,18
2023-11-30T21:36:00.135Z,14.35
2023-11-30T21:38:00.150Z,14.35
2023-11-30T21:40:00.346Z,14.35
2023-11-30T21:42:00.082Z,16.5
2023-11-30T21:44:00.126Z,16.5
2023-11-30T21:46:00.254Z,14.97
2023-11-30T21:48:00.273Z,14.97
2023-11-30T21:50:00.278Z,14.97
2023-11-30T21:52:00.158Z,15.33
2023-11-30T21:54:00.091Z,15.33
2023-11-30T21:56:00.166Z,16.73
2023-11-30T21:58:00.165Z,16.73
2023-11-30T22:00:00.298Z,16.73
2023-11-30T22:02:00.285Z,17.47
2023-11-30T22:04:00.385Z,17.47
2023-11-30T22:06:00.085Z,17.2
2023-11-30T22:08:00.259Z,17.2
2023-11-30T22:10:00.355Z,17.2
2023-11-30T22:12:00.091Z,15.77
2023-11-30T22:14:00.131Z,15.77
2023-11-30T22:16:06.588Z,16.3
2023-11-30T22:18:00.217Z,16.3
2023-11-30T22:20:00.291Z,16.3
2023-11-30T22:22:00.090Z,16.77
2023-11-30T22:24:00.242Z,16.77
2023-11-30T22:26:04.205Z,17.4
2023-11-30T22:28:00.131Z,17.4
2023-11-30T22:30:00.155Z,17.4
2023-11-30T22:32:00.242Z,16.2
2023-11-30T22:34:00.203Z,16.2
2023-11-30T22:36:00.238Z,16.73
2023-11-30T22:38:00.235Z,16.73
2023-11-30T22:40:00.282Z,16.73
2023-11-30T22:42:00.085Z,16.13
2023-11-30T22:44:00.281Z,16.13
2023-11-30T22:46:00.231Z,14.9
2023-11-30T22:48:00.250Z,14.9
2023-11-30T22:50:00.269Z,14.9
2023-11-30T22:52:00.272Z,15.83
2023-11-30T22:54:00.162Z,15.83
2023-11-30T22:56:00.189Z,17.15
2023-11-30T22:58:00.164Z,17.15
2023-11-30T23:00:00.328Z,17.15
2023-11-30T23:02:00.349Z,16.55
2023-11-30T23:04:00.300Z,16.55
2023-11-30T23:06:00.084Z,18.25
2023-11-30T23:08:00.105Z,18.25
2023-11-30T23:10:00.306Z,18.25
2023-11-30T23:12:00.112Z,17.35
2023-11-30T23:14:00.082Z,17.35
2023-11-30T23:16:00.145Z,16.98
2023-11-30T23:18:00.221Z,16.98
2023-11-30T23:20:00.169Z,16.98
2023-11-30T23:22:00.174Z,17
2023-11-30T23:24:00.212Z,17
2023-11-30T23:26:00.124Z,21.07
2023-11-30T23:28:00.135Z,21.07
2023-11-30T23:30:00.199Z,21.07
2023-11-30T23:32:00.103Z,20.45
2023-11-30T23:34:00.161Z,20.45
2023-11-30T23:36:00.276Z,18.75
2023-11-30T23:38:00.243Z,18.75
2023-11-30T23:40:00.310Z,18.75
2023-11-30T23:42:00.084Z,18
2023-11-30T23:44:00.091Z,18
2023-11-30T23:46:00.097Z,17.35
2023-11-30T23:48:00.105Z,17.35
2023-11-30T23:50:00.252Z,17.35
2023-11-30T23:52:00.134Z,17.57
2023-11-30T23:54:00.099Z,17.57
2023-11-30T23:56:00.092Z,17.92
2023-11-30T23:58:00.158Z,17.92
